createdAt,value
2023-04-15T00:01:56.408Z,61.97
2023-04-15T00:04:26.877Z,67.47
2023-04-15T00:06:57.282Z,63.33
2023-04-15T00:09:27.661Z,64.32
2023-04-15T00:11:57.906Z,66.37
2023-04-15T00:14:28.637Z,65.22
2023-04-15T00:16:59.770Z,68.55
2023-04-15T00:19:30.173Z,77.88
2023-04-15T00:22:03.912Z,79.40
2023-04-15T00:24:37.299Z,76.38
2023-04-15T00:27:08.077Z,80.05
2023-04-15T00:29:38.435Z,68.88
2023-04-15T00:32:09.068Z,72.73
2023-04-15T00:34:39.658Z,71.57
2023-04-15T00:37:12.222Z,75.30
2023-04-15T00:39:43.227Z,74.38
2023-04-15T00:42:14.455Z,80.50
2023-04-15T00:44:45.151Z,80.82
2023-04-15T00:47:16.285Z,77.53
2023-04-15T00:52:16.742Z,74.35
2023-04-15T00:54:47.081Z,77.00
2023-04-15T00:57:17.524Z,77.87
2023-04-15T00:59:47.884Z,83.23
2023-04-15T01:02:18.855Z,75.53
2023-04-15T01:04:49.528Z,72.53
2023-04-15T01:07:19.880Z,72.30
2023-04-15T01:09:50.614Z,80.33
2023-04-15T01:12:23.017Z,84.40
2023-04-15T01:14:53.909Z,69.88
2023-04-15T01:19:54.754Z,76.75
2023-04-15T01:22:25.281Z,67.85
2023-04-15T01:25:04.734Z,72.70
2023-04-15T01:27:36.475Z,70.82
2023-04-15T01:30:07.753Z,65.15
2023-04-15T01:32:38.197Z,68.95
2023-04-15T01:35:09.090Z,72.93
2023-04-15T01:37:40.059Z,69.53
2023-04-15T01:40:10.995Z,69.00
2023-04-15T01:42:41.254Z,70.05
2023-04-15T01:45:12.500Z,68.28
2023-04-15T01:47:42.967Z,74.20
2023-04-15T01:50:13.781Z,70.13
2023-04-15T01:52:44.215Z,68.28
2023-04-15T01:55:16.516Z,71.80
2023-04-15T01:57:49.067Z,74.35
2023-04-15T02:00:20.228Z,78.75
2023-04-15T02:02:50.495Z,73.27
2023-04-15T02:05:20.928Z,77.70
2023-04-15T02:07:51.885Z,69.90
2023-04-15T02:10:22.159Z,73.40
2023-04-15T02:12:52.281Z,67.82
2023-04-15T02:15:22.821Z,80.97
2023-04-15T02:17:54.958Z,73.93
2023-04-15T02:20:25.985Z,81.03
2023-04-15T02:22:56.461Z,80.15
2023-04-15T02:25:27.260Z,78.65
2023-04-15T02:28:00.735Z,81.38
2023-04-15T02:30:31.095Z,80.22
2023-04-15T02:33:05.860Z,78.18
2023-04-15T02:38:14.146Z,81.88
2023-04-15T02:40:47.092Z,84.33
2023-04-15T02:43:17.470Z,82.60
2023-04-15T02:45:49.715Z,80.60
2023-04-15T02:48:21.949Z,84.40
2023-04-15T02:50:52.399Z,78.90
2023-04-15T02:53:23.264Z,82.22
2023-04-15T02:55:54.024Z,87.18
2023-04-15T02:58:24.367Z,81.60
2023-04-15T03:00:54.695Z,89.13
2023-04-15T03:03:26.664Z,87.63
2023-04-15T03:05:57.120Z,99.18
2023-04-15T03:08:28.001Z,89.97
2023-04-15T03:11:03.637Z,89.18
2023-04-15T03:13:36.272Z,85.50
2023-04-15T03:16:14.102Z,91.78
2023-04-15T03:18:45.554Z,142.82
2023-04-15T03:21:16.326Z,133.32
2023-04-15T03:23:48.485Z,114.82
2023-04-15T03:26:33.050Z,104.40
2023-04-15T03:29:12.580Z,95.85
2023-04-15T03:34:17.845Z,90.88
2023-04-15T03:36:53.432Z,95.75
2023-04-15T03:39:25.170Z,109.67
2023-04-15T03:41:55.793Z,101.13
2023-04-15T03:44:26.171Z,95.57
2023-04-15T03:46:57.089Z,99.68
2023-04-15T03:51:58.650Z,95.72
2023-04-15T03:54:29.093Z,91.85
2023-04-15T03:57:00.304Z,90.82
2023-04-15T03:59:30.822Z,89.80
2023-04-15T04:02:01.169Z,94.23
2023-04-15T04:04:31.650Z,96.57
2023-04-15T04:07:02.108Z,104.60
2023-04-15T04:10:24.010Z,125.70
2023-04-15T04:12:54.518Z,89.00
2023-04-15T04:15:24.827Z,88.50
2023-04-15T04:17:54.952Z,93.05
2023-04-15T04:20:25.177Z,86.80
2023-04-15T04:22:55.313Z,88.22
2023-04-15T04:25:25.623Z,90.22
2023-04-15T04:27:56.127Z,88.20
2023-04-15T04:30:26.456Z,90.00
2023-04-15T04:32:56.835Z,88.18
2023-04-15T04:35:27.178Z,88.33
2023-04-15T04:37:57.556Z,84.80
2023-04-15T04:40:28.238Z,86.00
2023-04-15T04:42:58.717Z,83.05
2023-04-15T04:45:29.580Z,87.67
2023-04-15T04:48:00.135Z,85.40
2023-04-15T04:50:30.383Z,86.43
2023-04-15T04:53:01.131Z,90.35
2023-04-15T04:55:31.470Z,85.47
2023-04-15T04:58:01.835Z,86.03
2023-04-15T05:00:32.761Z,91.57
2023-04-15T05:03:03.655Z,90.65
2023-04-15T05:05:34.046Z,82.70
2023-04-15T05:08:04.408Z,95.35
2023-04-15T05:10:34.699Z,90.60
2023-04-15T05:13:05.061Z,88.90
2023-04-15T05:15:47.417Z,84.87
2023-04-15T05:18:17.537Z,87.82
2023-04-15T05:20:47.655Z,91.63
2023-04-15T05:23:19.064Z,86.82
2023-04-15T05:25:49.365Z,82.15
2023-04-15T05:28:20.023Z,83.63
2023-04-15T05:30:50.450Z,86.47
2023-04-15T05:33:20.752Z,83.67
2023-04-15T05:35:51.065Z,89.17
2023-04-15T05:38:21.514Z,83.43
2023-04-15T05:40:51.812Z,86.40
2023-04-15T05:43:21.943Z,87.78
2023-04-15T05:45:55.622Z,88.00
2023-04-15T05:48:28.839Z,87.07
2023-04-15T05:50:59.092Z,87.18
2023-04-15T05:53:29.649Z,88.53
2023-04-15T05:55:59.689Z,88.03
2023-04-15T05:58:30.071Z,86.57
2023-04-15T06:01:00.535Z,85.18
2023-04-15T06:03:31.035Z,86.15
2023-04-15T06:06:01.381Z,89.93
2023-04-15T06:08:31.954Z,83.95
2023-04-15T06:11:02.289Z,86.37
2023-04-15T06:13:32.818Z,87.83
2023-04-15T06:16:04.988Z,84.50
2023-04-15T06:18:35.475Z,84.43
2023-04-15T06:21:05.895Z,87.03
2023-04-15T06:23:39.820Z,87.23
2023-04-15T06:26:10.909Z,83.30
2023-04-15T06:31:11.587Z,82.85
2023-04-15T06:33:42.377Z,86.03
2023-04-15T06:36:12.699Z,82.80
2023-04-15T06:38:43.164Z,87.23
2023-04-15T06:41:13.556Z,81.23
2023-04-15T06:43:43.913Z,83.90
2023-04-15T06:46:14.339Z,83.10
2023-04-15T06:48:44.853Z,82.77
2023-04-15T06:51:15.092Z,83.07
2023-04-15T06:53:46.409Z,80.30
2023-04-15T06:56:16.684Z,85.40
2023-04-15T06:58:52.529Z,83.57
2023-04-15T07:01:32.321Z,87.95
2023-04-15T07:04:02.873Z,86.23
2023-04-15T07:06:33.595Z,83.57
2023-04-15T07:09:04.410Z,87.63
2023-04-15T07:11:34.996Z,84.63
2023-04-15T07:14:05.841Z,85.93
2023-04-15T07:16:36.203Z,83.63
2023-04-15T07:19:06.496Z,89.30
2023-04-15T07:21:36.777Z,84.90
2023-04-15T07:24:07.270Z,88.63
2023-04-15T07:26:37.529Z,82.37
2023-04-15T07:29:08.470Z,88.40
2023-04-15T07:31:39.891Z,86.72
2023-04-15T07:34:10.469Z,89.47
2023-04-15T07:36:42.226Z,84.57
2023-04-15T07:39:12.603Z,88.47
2023-04-15T07:41:43.316Z,89.63
2023-04-15T07:44:14.013Z,85.05
2023-04-15T07:46:44.284Z,85.75
2023-04-15T07:49:14.716Z,85.45
2023-04-15T07:51:44.992Z,87.70
2023-04-15T07:54:15.216Z,81.25
2023-04-15T07:56:45.602Z,85.93
2023-04-15T07:59:17.871Z,86.60
2023-04-15T08:01:49.086Z,90.03
2023-04-15T08:04:19.920Z,83.63
2023-04-15T08:06:52.212Z,85.13
2023-04-15T08:09:22.569Z,87.13
2023-04-15T08:11:53.831Z,83.20
2023-04-15T08:14:24.632Z,83.00
2023-04-15T08:16:54.926Z,88.63
2023-04-15T08:19:25.455Z,84.90
2023-04-15T08:21:56.190Z,86.50
2023-04-15T08:24:28.731Z,84.57
2023-04-15T08:26:59.967Z,84.55
2023-04-15T08:29:30.921Z,82.93
2023-04-15T08:32:06.361Z,80.50
2023-04-15T08:34:37.240Z,82.70
2023-04-15T08:37:07.445Z,84.43
2023-04-15T08:39:37.758Z,84.18
2023-04-15T08:42:14.316Z,80.33
2023-04-15T08:44:47.202Z,84.57
2023-04-15T08:47:19.069Z,83.53
2023-04-15T08:49:55.834Z,81.70
2023-04-15T08:52:31.033Z,78.60
2023-04-15T08:55:04.873Z,84.47
2023-04-15T08:57:36.371Z,82.47
2023-04-15T09:00:07.128Z,81.07
2023-04-15T09:02:38.551Z,77.78
2023-04-15T09:05:10.459Z,71.63
2023-04-15T09:07:41.147Z,75.13
2023-04-15T09:10:13.124Z,73.50
2023-04-15T09:12:43.445Z,76.93
2023-04-15T09:15:18.011Z,74.50
2023-04-15T09:17:50.380Z,75.38
2023-04-15T09:20:23.800Z,70.45
2023-04-15T09:22:55.079Z,75.43
2023-04-15T09:25:32.207Z,73.22
2023-04-15T09:28:05.272Z,69.28
2023-04-15T09:30:36.025Z,70.22
2023-04-15T09:33:10.600Z,69.80
2023-04-15T09:35:40.960Z,66.63
2023-04-15T09:38:13.258Z,66.90
2023-04-15T09:40:44.928Z,65.45
2023-04-15T09:43:19.785Z,64.10
2023-04-15T09:45:57.599Z,64.40
2023-04-15T09:48:33.633Z,62.42
2023-04-15T09:51:04.896Z,64.25
2023-04-15T09:53:38.933Z,63.13
2023-04-15T09:56:11.274Z,67.10
2023-04-15T09:58:41.789Z,63.58
2023-04-15T10:01:13.905Z,66.68
2023-04-15T10:03:45.143Z,65.95
2023-04-15T10:09:05.917Z,62.00
2023-04-15T10:11:37.901Z,65.88
2023-04-15T10:14:09.992Z,67.47
2023-04-15T10:16:45.574Z,66.05
2023-04-15T10:19:18.698Z,68.32
2023-04-15T10:21:49.535Z,68.38
2023-04-15T10:24:23.166Z,67.13
2023-04-15T10:26:55.231Z,67.18
2023-04-15T10:29:29.722Z,67.40
2023-04-15T10:32:03.056Z,68.28
2023-04-15T10:34:37.818Z,70.07
2023-04-15T10:37:08.251Z,68.78
2023-04-15T10:39:46.764Z,69.10
2023-04-15T10:42:19.723Z,70.43
2023-04-15T10:44:55.500Z,64.72
2023-04-15T10:47:26.688Z,66.85
2023-04-15T10:52:32.173Z,65.68
2023-04-15T10:57:45.787Z,67.25
2023-04-15T11:00:20.514Z,64.80
2023-04-15T11:03:10.455Z,66.20
2023-04-15T11:05:54.130Z,65.82
2023-04-15T11:08:58.626Z,65.90
2023-04-15T11:12:07.523Z,66.55
2023-04-15T11:14:42.730Z,66.10
2023-04-15T11:17:13.115Z,67.35
2023-04-15T11:19:43.764Z,65.13
2023-04-15T11:22:15.050Z,65.40
2023-04-15T11:27:26.932Z,67.32
2023-04-15T11:29:57.256Z,64.47
2023-04-15T11:32:27.614Z,64.20
2023-04-15T11:34:58.063Z,65.73
2023-04-15T11:37:32.797Z,64.07
2023-04-15T11:40:06.126Z,64.80
2023-04-15T11:42:48.612Z,64.97
2023-04-15T11:45:20.102Z,65.55
2023-04-15T11:47:50.420Z,64.93
2023-04-15T11:50:26.486Z,63.63
2023-04-15T11:53:09.741Z,66.35
2023-04-15T11:55:51.947Z,63.42
2023-04-15T11:58:25.114Z,68.07
2023-04-15T12:00:58.024Z,66.05
2023-04-15T12:03:33.672Z,68.47
2023-04-15T12:06:18.895Z,66.57
2023-04-15T12:08:58.187Z,70.78
2023-04-15T12:11:35.319Z,69.75
2023-04-15T12:14:27.167Z,75.80
2023-04-15T12:17:01.163Z,73.55
2023-04-15T12:19:33.963Z,71.72
2023-04-15T12:22:24.630Z,68.50
2023-04-15T12:24:59.817Z,69.20
2023-04-15T12:27:30.737Z,67.18
2023-04-15T12:30:08.490Z,69.57
2023-04-15T12:32:40.452Z,67.80
2023-04-15T12:35:12.487Z,67.53
2023-04-15T12:37:42.964Z,70.13
2023-04-15T12:40:13.706Z,70.10
2023-04-15T12:42:44.296Z,68.13
2023-04-15T12:45:14.445Z,69.10
2023-04-15T12:47:44.693Z,71.38
2023-04-15T12:50:15.043Z,71.83
2023-04-15T12:52:45.244Z,69.43
2023-04-15T12:55:15.563Z,67.32
2023-04-15T12:57:46.091Z,69.70
2023-04-15T13:00:17.009Z,67.43
2023-04-15T13:02:47.559Z,71.05
2023-04-15T13:05:18.317Z,70.47
2023-04-15T13:07:48.767Z,68.18
2023-04-15T13:10:19.135Z,68.25
2023-04-15T13:12:51.848Z,68.93
2023-04-15T13:15:25.754Z,73.35
2023-04-15T13:17:56.377Z,70.43
2023-04-15T13:20:29.408Z,71.97
2023-04-15T13:22:59.777Z,70.50
2023-04-15T13:25:30.372Z,73.27
2023-04-15T13:28:01.143Z,71.78
2023-04-15T13:30:31.536Z,71.93
2023-04-15T13:33:02.390Z,73.73
2023-04-15T13:35:32.904Z,72.00
2023-04-15T13:38:03.394Z,72.43
2023-04-15T13:40:33.952Z,71.00
2023-04-15T13:43:04.576Z,70.43
2023-04-15T13:45:35.148Z,71.15
2023-04-15T13:48:05.591Z,72.10
2023-04-15T13:50:36.049Z,72.63
2023-04-15T13:53:06.484Z,74.07
2023-04-15T13:55:37.987Z,72.17
2023-04-15T13:58:08.467Z,69.57
2023-04-15T14:00:38.897Z,68.37
2023-04-15T14:03:09.456Z,69.57
2023-04-15T14:05:40.588Z,74.47
2023-04-15T14:08:10.819Z,73.85
2023-04-15T14:10:41.400Z,74.60
2023-04-15T14:13:11.619Z,76.97
2023-04-15T14:15:41.973Z,80.78
2023-04-15T14:18:12.328Z,81.03
2023-04-15T14:20:42.707Z,78.50
2023-04-15T14:23:13.396Z,78.50
2023-04-15T14:25:44.692Z,79.50
2023-04-15T14:28:16.597Z,79.70
2023-04-15T14:30:46.832Z,77.10
2023-04-15T14:33:17.142Z,78.20
2023-04-15T14:35:47.522Z,81.45
2023-04-15T14:38:17.900Z,78.17
2023-04-15T14:40:48.295Z,79.30
2023-04-15T14:43:19.497Z,75.13
2023-04-15T14:45:50.215Z,76.30
2023-04-15T14:48:20.560Z,77.60
2023-04-15T14:50:50.982Z,78.67
2023-04-15T14:53:21.530Z,74.33
2023-04-15T14:55:52.080Z,74.47
2023-04-15T14:58:22.201Z,77.90
2023-04-15T15:00:52.574Z,77.68
2023-04-15T15:03:23.190Z,76.67
2023-04-15T15:05:53.518Z,76.00
2023-04-15T15:08:23.931Z,76.63
2023-04-15T15:10:54.273Z,76.13
2023-04-15T15:13:24.511Z,76.90
2023-04-15T15:15:54.845Z,77.70
2023-04-15T15:18:27.846Z,76.37
2023-04-15T15:20:58.242Z,74.88
2023-04-15T15:23:28.558Z,75.82
2023-04-15T15:25:59.033Z,77.35
2023-04-15T15:28:29.717Z,76.30
2023-04-15T15:31:00.029Z,75.57
2023-04-15T15:33:30.472Z,79.17
2023-04-15T15:36:01.171Z,80.00
2023-04-15T15:38:31.583Z,81.07
2023-04-15T15:41:02.061Z,82.17
2023-04-15T15:43:32.320Z,80.43
2023-04-15T15:46:03.814Z,84.70
2023-04-15T15:49:05.199Z,111.35
2023-04-15T15:51:35.896Z,106.45
2023-04-15T15:54:09.266Z,93.97
2023-04-15T15:56:40.894Z,89.80
2023-04-15T15:59:11.166Z,90.97
2023-04-15T16:01:41.323Z,86.05
2023-04-15T16:04:12.752Z,89.80
2023-04-15T16:06:44.070Z,95.97
2023-04-15T16:11:44.545Z,96.38
2023-04-15T16:14:16.457Z,93.30
2023-04-15T16:16:46.910Z,105.53
2023-04-15T16:19:17.860Z,97.45
2023-04-15T16:21:48.289Z,99.13
2023-04-15T16:24:22.227Z,88.93
2023-04-15T16:26:52.461Z,99.93
2023-04-15T16:29:22.904Z,97.10
2023-04-15T16:31:53.474Z,98.22
2023-04-15T16:34:23.840Z,100.40
2023-04-15T16:36:54.219Z,95.20
2023-04-15T16:39:26.429Z,95.17
2023-04-15T16:41:56.706Z,93.57
2023-04-15T16:44:28.253Z,96.72
2023-04-15T16:46:59.119Z,99.88
2023-04-15T16:49:29.238Z,96.30
2023-04-15T16:52:00.388Z,97.68
2023-04-15T16:54:32.156Z,98.13
2023-04-15T16:57:02.479Z,107.05
2023-04-15T16:59:32.796Z,97.80
2023-04-15T17:02:03.217Z,102.60
2023-04-15T17:04:33.648Z,97.20
2023-04-15T17:07:03.946Z,92.33
2023-04-15T17:09:34.658Z,98.32
2023-04-15T17:12:06.479Z,96.07
2023-04-15T17:14:37.498Z,97.88
2023-04-15T17:17:08.612Z,98.25
2023-04-15T17:22:09.718Z,100.07
2023-04-15T17:24:39.977Z,102.95
2023-04-15T17:27:10.112Z,99.75
2023-04-15T17:29:40.277Z,96.85
2023-04-15T17:32:10.562Z,95.28
2023-04-15T17:34:49.757Z,104.68
2023-04-15T17:37:21.546Z,95.97
2023-04-15T17:39:51.789Z,93.18
2023-04-15T17:42:22.122Z,89.90
2023-04-15T17:44:52.500Z,98.80
2023-04-15T17:47:23.205Z,97.07
2023-04-15T17:49:53.575Z,90.18
2023-04-15T17:52:23.813Z,95.30
2023-04-15T17:54:54.097Z,98.05
2023-04-15T17:57:24.335Z,93.75
2023-04-15T17:59:54.554Z,94.55
2023-04-15T18:02:24.930Z,100.03
2023-04-15T18:04:55.418Z,103.27
2023-04-15T18:07:25.772Z,96.17
2023-04-15T18:09:58.288Z,100.05
2023-04-15T18:12:28.459Z,100.05
2023-04-15T18:14:58.704Z,100.63
2023-04-15T18:17:29.942Z,101.82
2023-04-15T18:20:00.231Z,99.05
2023-04-15T18:22:30.573Z,96.93
2023-04-15T18:25:06.390Z,96.43
2023-04-15T18:27:38.225Z,108.53
2023-04-15T18:30:11.452Z,99.13
2023-04-15T18:32:45.182Z,102.40
2023-04-15T18:35:35.914Z,98.53
2023-04-15T18:38:06.289Z,97.13
2023-04-15T18:40:36.575Z,100.27
2023-04-15T18:43:06.912Z,103.65
2023-04-15T18:45:37.297Z,96.40
2023-04-15T18:48:07.898Z,106.78
2023-04-15T18:50:38.343Z,96.13
2023-04-15T18:53:08.615Z,104.50
2023-04-15T18:55:38.972Z,104.38
2023-04-15T18:58:10.268Z,102.35
2023-04-15T19:00:44.080Z,96.13
2023-04-15T19:03:14.502Z,100.25
2023-04-15T19:05:44.797Z,111.93
2023-04-15T19:08:15.258Z,102.22
2023-04-15T19:10:46.201Z,102.67
2023-04-15T19:13:18.352Z,114.53
2023-04-15T19:15:49.621Z,108.95
2023-04-15T19:18:19.883Z,98.40
2023-04-15T19:20:57.396Z,101.20
2023-04-15T19:23:42.110Z,109.07
2023-04-15T19:26:12.781Z,113.57
2023-04-15T19:28:42.955Z,102.18
2023-04-15T19:31:13.197Z,107.35
2023-04-15T19:33:49.369Z,97.93
2023-04-15T19:36:20.612Z,100.03
2023-04-15T19:41:20.675Z,113.80
2023-04-15T19:43:50.946Z,96.57
2023-04-15T19:46:21.223Z,97.57
2023-04-15T19:48:51.664Z,97.63
2023-04-15T19:51:22.038Z,112.57
2023-04-15T19:53:52.355Z,102.27
2023-04-15T19:56:23.147Z,101.90
2023-04-15T19:58:55.417Z,106.68
2023-04-15T20:01:25.925Z,107.82
2023-04-15T20:03:56.985Z,100.13
2023-04-15T20:06:29.180Z,105.30
2023-04-15T20:08:59.617Z,113.38
2023-04-15T20:12:09.659Z,105.55
2023-04-15T20:14:24.144Z,106.22
2023-04-15T20:16:54.446Z,115.70
2023-04-15T20:19:24.763Z,93.30
2023-04-15T20:21:56.361Z,105.38
2023-04-15T20:24:26.813Z,105.35
2023-04-15T20:26:57.120Z,106.27
2023-04-15T20:29:27.526Z,97.45
2023-04-15T20:31:58.695Z,108.20
2023-04-15T20:36:59.326Z,104.82
2023-04-15T20:39:29.815Z,106.28
2023-04-15T20:42:00.143Z,101.68
2023-04-15T20:44:30.836Z,102.30
2023-04-15T20:47:01.656Z,105.67
2023-04-15T20:49:39.022Z,106.07
2023-04-15T20:52:10.539Z,114.60
2023-04-15T20:54:40.742Z,94.25
2023-04-15T20:57:11.076Z,108.78
2023-04-15T20:59:41.383Z,115.67
2023-04-15T21:02:11.930Z,112.57
2023-04-15T21:04:42.169Z,120.30
2023-04-15T21:07:12.859Z,104.25
2023-04-15T21:09:43.871Z,107.50
2023-04-15T21:12:14.274Z,105.55
2023-04-15T21:14:44.503Z,112.17
2023-04-15T21:17:14.808Z,107.85
2023-04-15T21:19:45.766Z,96.07
2023-04-15T21:22:15.855Z,95.45
2023-04-15T21:24:46.147Z,102.57
2023-04-15T21:27:16.461Z,104.00
2023-04-15T21:29:46.615Z,96.65
2023-04-15T21:32:16.830Z,94.50
2023-04-15T21:34:47.298Z,98.20
2023-04-15T21:37:17.741Z,97.70
2023-04-15T21:39:48.088Z,95.90
2023-04-15T21:42:18.432Z,97.22
2023-04-15T21:44:48.810Z,101.05
2023-04-15T21:47:19.110Z,100.27
2023-04-15T21:49:49.566Z,97.67
2023-04-15T21:52:20.107Z,98.88
2023-04-15T21:54:50.473Z,95.10
2023-04-15T21:57:20.520Z,96.53
2023-04-15T21:59:50.607Z,101.55
2023-04-15T22:02:20.837Z,99.93
2023-04-15T22:04:51.224Z,93.80
2023-04-15T22:07:21.612Z,98.27
2023-04-15T22:09:51.913Z,94.83
2023-04-15T22:12:22.005Z,89.88
2023-04-15T22:14:52.428Z,94.47
2023-04-15T22:17:22.809Z,92.10
2023-04-15T22:19:53.067Z,98.30
2023-04-15T22:22:27.413Z,95.57
2023-04-15T22:25:14.473Z,93.77
2023-04-15T22:27:44.861Z,91.60
2023-04-15T22:30:15.647Z,92.57
2023-04-15T22:32:46.400Z,90.57
2023-04-15T22:35:16.817Z,97.25
2023-04-15T22:37:47.069Z,93.00
2023-04-15T22:40:17.329Z,89.78
2023-04-15T22:42:48.657Z,87.97
2023-04-15T22:45:19.059Z,91.80
2023-04-15T22:47:49.391Z,91.90
2023-04-15T22:50:19.720Z,90.68
2023-04-15T22:52:50.649Z,88.07
2023-04-15T22:55:20.990Z,89.60
2023-04-15T22:57:51.173Z,89.35
2023-04-15T23:00:21.249Z,88.60
2023-04-15T23:02:52.070Z,94.50
2023-04-15T23:05:22.655Z,95.00
2023-04-15T23:07:53.134Z,92.87
2023-04-15T23:10:23.622Z,94.53
2023-04-15T23:12:54.040Z,90.07
2023-04-15T23:15:24.461Z,91.13
2023-04-15T23:17:54.847Z,93.53
2023-04-15T23:20:25.145Z,92.00
2023-04-15T23:22:55.508Z,94.55
2023-04-15T23:25:25.927Z,98.20
2023-04-15T23:27:56.644Z,101.10
2023-04-15T23:30:26.946Z,89.97
2023-04-15T23:32:57.507Z,98.32
2023-04-15T23:35:29.645Z,98.07
2023-04-15T23:37:59.941Z,100.55
2023-04-15T23:40:30.148Z,96.50
2023-04-15T23:43:00.747Z,102.65
2023-04-15T23:45:31.706Z,97.65
2023-04-15T23:48:02.052Z,93.18
2023-04-15T23:50:32.407Z,106.33
2023-04-15T23:53:02.885Z,100.47
2023-04-15T23:55:34.230Z,107.00
2023-04-15T23:58:04.941Z,102.35
